createdAt,value
2018-04-23T00:00:58.136Z,19.79
2018-04-23T00:01:58.174Z,19.8
2018-04-23T00:02:58.238Z,19.8
2018-04-23T00:03:58.106Z,19.78
2018-04-23T00:04:58.230Z,19.8
2018-04-23T00:05:58.327Z,19.79
2018-04-23T00:06:58.188Z,19.78
2018-04-23T00:07:58.262Z,19.79
2018-04-23T00:08:58.244Z,19.79
2018-04-23T00:09:58.217Z,19.78
2018-04-23T00:10:58.055Z,19.79
2018-04-23T00:11:58.111Z,19.79
2018-04-23T00:12:58.191Z,19.78
2018-04-23T00:13:58.196Z,19.79
2018-04-23T00:14:58.340Z,19.79
2018-04-23T00:15:58.253Z,19.78
2018-04-23T00:16:58.318Z,19.79
2018-04-23T00:17:58.364Z,19.79
2018-04-23T00:18:58.171Z,19.77
2018-04-23T00:19:58.149Z,19.78
2018-04-23T00:20:58.120Z,19.78
2018-04-23T00:21:58.126Z,19.77
2018-04-23T00:22:58.411Z,19.78
2018-04-23T00:23:58.264Z,19.79
2018-04-23T00:24:58.155Z,19.77
2018-04-23T00:25:58.098Z,19.78
2018-04-23T00:26:58.225Z,19.78
2018-04-23T00:27:58.309Z,19.77
2018-04-23T00:28:58.268Z,19.78
2018-04-23T00:29:58.141Z,19.78
2018-04-23T00:30:58.151Z,19.77
2018-04-23T00:31:58.505Z,19.78
2018-04-23T00:32:58.202Z,19.78
2018-04-23T00:33:58.172Z,19.76
2018-04-23T00:34:58.291Z,19.77
2018-04-23T00:35:59.823Z,19.77
2018-04-23T00:36:58.165Z,19.76
2018-04-23T00:37:58.386Z,19.78
2018-04-23T00:38:58.304Z,19.77
2018-04-23T00:39:58.312Z,19.76
2018-04-23T00:40:58.245Z,19.77
2018-04-23T00:41:58.146Z,19.78
2018-04-23T00:42:58.229Z,19.75
2018-04-23T00:43:58.228Z,19.77
2018-04-23T00:44:58.242Z,19.77
2018-04-23T00:45:58.096Z,19.76
2018-04-23T00:46:58.178Z,19.77
2018-04-23T00:47:58.113Z,19.77
2018-04-23T00:48:58.054Z,19.76
2018-04-23T00:49:58.243Z,19.77
2018-04-23T00:50:58.277Z,19.77
2018-04-23T00:51:58.197Z,19.75
2018-04-23T00:52:58.295Z,19.77
2018-04-23T00:53:58.418Z,19.77
2018-04-23T00:54:58.067Z,19.76
2018-04-23T00:55:58.255Z,19.77
2018-04-23T00:56:58.339Z,19.76
2018-04-23T00:57:58.277Z,19.76
2018-04-23T00:58:58.179Z,19.77
2018-04-23T00:59:58.104Z,19.77
2018-04-23T01:00:58.252Z,19.75
2018-04-23T01:01:58.269Z,19.77
2018-04-23T01:02:58.250Z,19.77
2018-04-23T01:03:58.208Z,19.75
2018-04-23T01:04:58.161Z,19.76
2018-04-23T01:05:58.134Z,19.76
2018-04-23T01:06:58.297Z,19.75
2018-04-23T01:07:58.094Z,19.76
2018-04-23T01:08:58.207Z,19.76
2018-04-23T01:09:58.036Z,19.74
2018-04-23T01:10:58.169Z,19.76
2018-04-23T01:11:58.096Z,19.75
2018-04-23T01:12:58.223Z,19.74
2018-04-23T01:13:57.893Z,19.75
2018-04-23T01:14:58.143Z,19.76
2018-04-23T01:15:58.256Z,19.75
2018-04-23T01:16:58.086Z,19.76
2018-04-23T01:17:58.178Z,19.75
2018-04-23T01:18:58.136Z,19.74
2018-04-23T01:19:58.176Z,19.75
2018-04-23T01:20:58.251Z,19.75
2018-04-23T01:21:58.081Z,19.74
2018-04-23T01:22:58.275Z,19.75
2018-04-23T01:23:58.076Z,19.75
2018-04-23T01:24:58.077Z,19.73
2018-04-23T01:25:58.234Z,19.75
2018-04-23T01:26:58.193Z,19.75
2018-04-23T01:27:58.087Z,19.73
2018-04-23T01:28:58.430Z,19.74
2018-04-23T01:29:58.084Z,19.74
2018-04-23T01:30:58.399Z,19.73
2018-04-23T01:31:58.227Z,19.75
2018-04-23T01:32:58.085Z,19.75
2018-04-23T01:33:58.216Z,19.72
2018-04-23T01:34:58.089Z,19.74
2018-04-23T01:35:58.364Z,19.75
2018-04-23T01:36:58.188Z,19.72
2018-04-23T01:37:58.251Z,19.74
2018-04-23T01:38:57.910Z,19.75
2018-04-23T01:39:58.186Z,19.72
2018-04-23T01:40:58.203Z,19.73
2018-04-23T01:41:58.226Z,19.74
2018-04-23T01:42:58.197Z,19.72
2018-04-23T01:43:58.084Z,19.73
2018-04-23T01:44:58.091Z,19.73
2018-04-23T01:45:58.209Z,19.71
2018-04-23T01:46:58.126Z,19.73
2018-04-23T01:47:58.201Z,19.73
2018-04-23T01:48:58.202Z,19.71
2018-04-23T01:49:58.231Z,19.72
2018-04-23T01:50:58.178Z,19.73
2018-04-23T01:51:58.177Z,19.71
2018-04-23T01:52:58.014Z,19.72
2018-04-23T01:53:58.135Z,19.72
2018-04-23T01:54:58.249Z,19.7
2018-04-23T01:55:58.239Z,19.72
2018-04-23T01:56:58.093Z,19.72
2018-04-23T01:57:58.179Z,19.71
2018-04-23T01:58:57.990Z,19.72
2018-04-23T01:59:58.211Z,19.72
2018-04-23T02:00:58.163Z,19.71
2018-04-23T02:01:58.157Z,19.72
2018-04-23T02:02:58.104Z,19.72
2018-04-23T02:03:58.096Z,19.7
2018-04-23T02:04:58.135Z,19.72
2018-04-23T02:05:58.218Z,19.72
2018-04-23T02:06:58.045Z,19.7
2018-04-23T02:07:58.115Z,19.71
2018-04-23T02:08:58.054Z,19.71
2018-04-23T02:09:58.146Z,19.7
2018-04-23T02:10:58.241Z,19.71
2018-04-23T02:11:58.320Z,19.72
2018-04-23T02:12:58.147Z,19.7
2018-04-23T02:13:58.052Z,19.71
2018-04-23T02:14:58.165Z,19.71
2018-04-23T02:15:58.103Z,19.7
2018-04-23T02:16:58.160Z,19.72
2018-04-23T02:17:58.187Z,19.71
2018-04-23T02:18:58.176Z,19.69
2018-04-23T02:19:58.491Z,19.71
2018-04-23T02:20:58.269Z,19.71
2018-04-23T02:21:58.255Z,19.69
2018-04-23T02:22:58.181Z,19.7
2018-04-23T02:23:58.102Z,19.71
2018-04-23T02:24:58.198Z,19.69
2018-04-23T02:25:58.204Z,19.7
2018-04-23T02:26:58.167Z,19.7
2018-04-23T02:27:58.342Z,19.68
2018-04-23T02:28:59.123Z,19.7
2018-04-23T02:29:58.106Z,19.7
2018-04-23T02:30:58.193Z,19.68
2018-04-23T02:31:58.185Z,19.7
2018-04-23T02:32:58.166Z,19.7
2018-04-23T02:33:58.320Z,19.68
2018-04-23T02:34:57.977Z,19.7
2018-04-23T02:35:58.179Z,19.7
2018-04-23T02:36:58.238Z,19.68
2018-04-23T02:37:58.329Z,19.7
2018-04-23T02:38:58.026Z,19.7
2018-04-23T02:39:58.071Z,19.68
2018-04-23T02:40:58.019Z,19.69
2018-04-23T02:41:58.038Z,19.69
2018-04-23T02:42:58.172Z,19.67
2018-04-23T02:43:58.237Z,19.69
2018-04-23T02:44:58.247Z,19.69
2018-04-23T02:45:58.213Z,19.67
2018-04-23T02:46:58.116Z,19.68
2018-04-23T02:47:58.236Z,19.69
2018-04-23T02:48:58.121Z,19.67
2018-04-23T02:49:58.148Z,19.68
2018-04-23T02:50:58.250Z,19.68
2018-04-23T02:51:58.298Z,19.67
2018-04-23T02:52:58.236Z,19.69
2018-04-23T02:53:58.192Z,19.69
2018-04-23T02:54:58.220Z,19.67
2018-04-23T02:55:58.087Z,19.68
2018-04-23T02:56:58.029Z,19.68
2018-04-23T02:57:58.173Z,19.66
2018-04-23T02:58:58.136Z,19.68
2018-04-23T02:59:58.379Z,19.69
2018-04-23T03:00:58.137Z,19.66
2018-04-23T03:01:58.112Z,19.68
2018-04-23T03:02:58.051Z,19.68
2018-04-23T03:03:58.141Z,19.66
2018-04-23T03:04:58.066Z,19.67
2018-04-23T03:05:58.260Z,19.69
2018-04-23T03:06:58.048Z,19.66
2018-04-23T03:07:58.099Z,19.68
2018-04-23T03:08:58.210Z,19.67
2018-04-23T03:09:58.152Z,19.66
2018-04-23T03:10:58.127Z,19.67
2018-04-23T03:11:58.206Z,19.68
2018-04-23T03:12:58.139Z,19.66
2018-04-23T03:13:58.381Z,19.68
2018-04-23T03:14:58.122Z,19.68
2018-04-23T03:15:58.110Z,19.66
2018-04-23T03:16:58.014Z,19.67
2018-04-23T03:17:58.171Z,19.67
2018-04-23T03:18:58.223Z,19.65
2018-04-23T03:19:58.166Z,19.66
2018-04-23T03:20:58.194Z,19.68
2018-04-23T03:21:58.032Z,19.65
2018-04-23T03:22:58.094Z,19.67
2018-04-23T03:23:58.220Z,19.67
2018-04-23T03:24:58.219Z,19.65
2018-04-23T03:25:58.237Z,19.67
2018-04-23T03:26:58.149Z,19.68
2018-04-23T03:27:58.164Z,19.64
2018-04-23T03:28:58.206Z,19.67
2018-04-23T03:29:58.143Z,19.67
2018-04-23T03:30:58.346Z,19.65
2018-04-23T03:31:58.000Z,19.67
2018-04-23T03:32:58.154Z,19.67
2018-04-23T03:33:58.035Z,19.65
2018-04-23T03:34:58.174Z,19.67
2018-04-23T03:35:58.105Z,19.66
2018-04-23T03:36:58.184Z,19.65
2018-04-23T03:37:57.979Z,19.66
2018-04-23T03:38:58.097Z,19.66
2018-04-23T03:39:58.147Z,19.64
2018-04-23T03:40:58.106Z,19.66
2018-04-23T03:41:58.251Z,19.67
2018-04-23T03:42:58.113Z,19.64
2018-04-23T03:43:58.202Z,19.66
2018-04-23T03:44:57.950Z,19.66
2018-04-23T03:45:58.156Z,19.64
2018-04-23T03:46:58.078Z,19.65
2018-04-23T03:47:58.044Z,19.66
2018-04-23T03:48:58.151Z,19.64
2018-04-23T03:49:58.043Z,19.66
2018-04-23T03:50:58.017Z,19.66
2018-04-23T03:51:58.133Z,19.65
2018-04-23T03:52:58.130Z,19.66
2018-04-23T03:53:58.092Z,19.66
2018-04-23T03:54:58.187Z,19.63
2018-04-23T03:55:58.008Z,19.66
2018-04-23T03:56:57.973Z,19.65
2018-04-23T03:57:58.086Z,19.63
2018-04-23T03:58:58.086Z,19.65
2018-04-23T03:59:58.152Z,19.65
2018-04-23T04:00:58.197Z,19.63
2018-04-23T04:01:58.163Z,19.65
2018-04-23T04:02:58.031Z,19.65
2018-04-23T04:03:58.158Z,19.63
2018-04-23T04:04:58.451Z,19.65
2018-04-23T04:05:58.038Z,19.65
2018-04-23T04:06:58.066Z,19.63
2018-04-23T04:07:58.104Z,19.64
2018-04-23T04:08:58.090Z,19.65
2018-04-23T04:09:58.215Z,19.64
2018-04-23T04:10:58.217Z,19.64
2018-04-23T04:11:58.101Z,19.65
2018-04-23T04:12:58.026Z,19.63
2018-04-23T04:13:58.081Z,19.65
2018-04-23T04:14:58.168Z,19.65
2018-04-23T04:15:58.355Z,19.63
2018-04-23T04:16:58.240Z,19.65
2018-04-23T04:17:58.062Z,19.65
2018-04-23T04:18:58.028Z,19.63
2018-04-23T04:19:58.083Z,19.64
2018-04-23T04:20:58.107Z,19.65
2018-04-23T04:21:58.019Z,19.62
2018-04-23T04:22:58.246Z,19.64
2018-04-23T04:23:58.016Z,19.65
2018-04-23T04:24:58.154Z,19.63
2018-04-23T04:25:58.060Z,19.64
2018-04-23T04:26:57.986Z,19.64
2018-04-23T04:27:58.109Z,19.62
2018-04-23T04:28:58.251Z,19.63
2018-04-23T04:29:58.276Z,19.65
2018-04-23T04:30:58.080Z,19.62
2018-04-23T04:31:58.074Z,19.64
2018-04-23T04:32:58.209Z,19.65
2018-04-23T04:33:58.081Z,19.62
2018-04-23T04:34:57.981Z,19.64
2018-04-23T04:35:58.341Z,19.65
2018-04-23T04:36:58.178Z,19.62
2018-04-23T04:37:58.120Z,19.64
2018-04-23T04:38:58.178Z,19.64
2018-04-23T04:39:58.219Z,19.63
2018-04-23T04:40:58.119Z,19.65
2018-04-23T04:41:58.100Z,19.64
2018-04-23T04:42:58.017Z,19.62
2018-04-23T04:43:58.122Z,19.64
2018-04-23T04:44:58.114Z,19.64
2018-04-23T04:45:58.028Z,19.62
2018-04-23T04:46:57.834Z,19.64
2018-04-23T04:47:58.016Z,19.65
2018-04-23T04:48:58.011Z,19.62
2018-04-23T04:49:57.982Z,19.64
2018-04-23T04:50:58.148Z,19.66
2018-04-23T04:51:58.056Z,19.62
2018-04-23T04:52:58.194Z,19.63
2018-04-23T04:53:58.177Z,19.63
2018-04-23T04:54:58.055Z,19.63
2018-04-23T04:55:58.102Z,19.64
2018-04-23T04:56:58.003Z,19.63
2018-04-23T04:57:58.075Z,19.62
2018-04-23T04:58:58.082Z,19.64
2018-04-23T04:59:58.141Z,19.64
2018-04-23T05:00:58.244Z,19.62
2018-04-23T05:01:58.074Z,19.63
2018-04-23T05:02:58.241Z,19.65
2018-04-23T05:03:58.192Z,19.63
2018-04-23T05:04:58.197Z,19.64
2018-04-23T05:05:58.037Z,19.65
2018-04-23T05:06:58.096Z,19.62
2018-04-23T05:07:58.009Z,19.64
2018-04-23T05:08:57.960Z,19.65
2018-04-23T05:09:58.027Z,19.62
2018-04-23T05:10:58.249Z,19.64
2018-04-23T05:11:58.195Z,19.64
2018-04-23T05:12:58.187Z,19.62
2018-04-23T05:13:58.279Z,19.65
2018-04-23T05:14:57.958Z,19.64
2018-04-23T05:15:58.013Z,19.63
2018-04-23T05:16:58.007Z,19.65
2018-04-23T05:17:58.045Z,19.66
2018-04-23T05:18:58.055Z,19.63
2018-04-23T05:19:58.124Z,19.65
2018-04-23T05:20:58.235Z,19.65
2018-04-23T05:21:58.172Z,19.63
2018-04-23T05:22:57.965Z,19.65
2018-04-23T05:23:58.063Z,19.65
2018-04-23T05:24:57.953Z,19.63
2018-04-23T05:25:58.200Z,19.65
2018-04-23T05:26:58.003Z,19.65
2018-04-23T05:27:58.007Z,19.62
2018-04-23T05:28:58.112Z,19.65
2018-04-23T05:29:58.060Z,19.65
2018-04-23T05:30:58.099Z,19.63
2018-04-23T05:31:58.231Z,19.64
2018-04-23T05:32:58.163Z,19.65
2018-04-23T05:33:57.980Z,19.63
2018-04-23T05:34:58.003Z,19.65
2018-04-23T05:35:57.937Z,19.66
2018-04-23T05:36:58.169Z,19.63
2018-04-23T05:37:58.011Z,19.65
2018-04-23T05:38:58.026Z,19.65
2018-04-23T05:39:58.095Z,19.62
2018-04-23T05:40:58.090Z,19.65
2018-04-23T05:41:58.131Z,19.65
2018-04-23T05:42:58.063Z,19.63
2018-04-23T05:43:58.123Z,19.65
2018-04-23T05:44:58.059Z,19.65
2018-04-23T05:45:58.128Z,19.63
2018-04-23T05:46:58.114Z,19.65
2018-04-23T05:47:58.467Z,19.65
2018-04-23T05:48:58.211Z,19.63
2018-04-23T05:49:57.853Z,19.64
2018-04-23T05:50:58.073Z,19.65
2018-04-23T05:51:58.003Z,19.63
2018-04-23T05:52:57.969Z,19.66
2018-04-23T05:53:57.979Z,19.65
2018-04-23T05:54:57.967Z,19.63
2018-04-23T05:55:57.956Z,19.65
2018-04-23T05:56:58.140Z,19.66
2018-04-23T05:57:58.007Z,19.63
2018-04-23T05:58:58.032Z,19.65
2018-04-23T05:59:58.139Z,19.65
2018-04-23T06:00:57.965Z,19.63
2018-04-23T06:01:58.036Z,19.66
2018-04-23T06:02:57.977Z,19.66
2018-04-23T06:03:57.969Z,19.64
2018-04-23T06:04:58.164Z,19.66
2018-04-23T06:05:58.194Z,19.66
2018-04-23T06:06:57.914Z,19.63
2018-04-23T06:07:58.186Z,19.66
2018-04-23T06:08:58.091Z,19.66
2018-04-23T06:09:58.093Z,19.64
2018-04-23T06:10:58.044Z,19.65
2018-04-23T06:11:58.119Z,19.66
2018-04-23T06:12:58.077Z,19.63
2018-04-23T06:13:58.075Z,19.66
2018-04-23T06:14:57.917Z,19.66
2018-04-23T06:15:58.073Z,19.64
2018-04-23T06:16:58.171Z,19.65
2018-04-23T06:17:58.134Z,19.66
2018-04-23T06:18:58.109Z,19.62
2018-04-23T06:19:58.012Z,19.68
2018-04-23T06:20:57.984Z,19.7
2018-04-23T06:21:58.057Z,19.68
2018-04-23T06:22:58.119Z,19.71
2018-04-23T06:23:57.963Z,19.71
2018-04-23T06:24:57.977Z,19.7
2018-04-23T06:25:58.094Z,19.72
2018-04-23T06:26:58.028Z,19.72
2018-04-23T06:27:58.153Z,19.72
2018-04-23T06:28:58.113Z,19.76
2018-04-23T06:29:58.204Z,19.75
2018-04-23T06:30:58.095Z,19.77
2018-04-23T06:31:58.174Z,19.8
2018-04-23T06:32:58.085Z,19.8
2018-04-23T06:33:58.035Z,19.81
2018-04-23T06:34:58.134Z,19.83
2018-04-23T06:35:58.183Z,19.85
2018-04-23T06:36:58.204Z,19.84
2018-04-23T06:37:57.972Z,19.87
2018-04-23T06:38:57.943Z,19.88
2018-04-23T06:39:57.931Z,19.89
2018-04-23T06:40:58.050Z,19.91
2018-04-23T06:41:58.104Z,19.92
2018-04-23T06:42:58.272Z,19.92
2018-04-23T06:43:58.144Z,19.94
2018-04-23T06:44:58.139Z,19.93
2018-04-23T06:45:57.910Z,19.92
2018-04-23T06:46:58.112Z,19.96
2018-04-23T06:47:58.146Z,19.94
2018-04-23T06:48:58.201Z,19.96
2018-04-23T06:49:58.010Z,19.99
2018-04-23T06:50:57.979Z,19.99
2018-04-23T06:51:58.033Z,19.99
2018-04-23T06:52:58.010Z,20.02
2018-04-23T06:53:58.116Z,20.01
2018-04-23T06:54:58.085Z,20.02
2018-04-23T06:55:58.135Z,20.04
2018-04-23T06:56:58.047Z,20.04
2018-04-23T06:57:58.150Z,20.04
2018-04-23T06:58:58.015Z,20.04
2018-04-23T06:59:58.157Z,20.04
2018-04-23T07:00:57.969Z,20.04
2018-04-23T07:01:58.132Z,20.06
2018-04-23T07:02:58.002Z,20.06
2018-04-23T07:03:58.189Z,20.06
2018-04-23T07:04:57.978Z,20.08
2018-04-23T07:05:58.120Z,20.08
2018-04-23T07:06:57.942Z,20.07
2018-04-23T07:07:58.114Z,20.09
2018-04-23T07:08:58.074Z,20.1
2018-04-23T07:09:58.037Z,20.08
2018-04-23T07:10:58.057Z,20.11
2018-04-23T07:11:58.059Z,20.11
2018-04-23T07:12:58.121Z,20.1
2018-04-23T07:13:58.120Z,20.12
2018-04-23T07:14:58.017Z,20.1
2018-04-23T07:15:58.048Z,20.11
2018-04-23T07:16:58.139Z,20.12
2018-04-23T07:17:58.033Z,20.12
2018-04-23T07:18:58.203Z,20.13
2018-04-23T07:19:58.263Z,20.14
2018-04-23T07:20:58.218Z,20.14
2018-04-23T07:21:57.943Z,20.12
2018-04-23T07:22:58.112Z,20.15
2018-04-23T07:23:57.952Z,20.14
2018-04-23T07:24:58.083Z,20.13
2018-04-23T07:25:58.096Z,20.15
2018-04-23T07:26:57.907Z,20.15
2018-04-23T07:27:58.206Z,20.15
2018-04-23T07:28:58.123Z,20.16
2018-04-23T07:29:57.924Z,20.16
2018-04-23T07:30:57.987Z,20.15
2018-04-23T07:31:57.952Z,20.14
2018-04-23T07:32:57.904Z,20.14
2018-04-23T07:33:58.132Z,20.14
2018-04-23T07:34:58.124Z,20.15
2018-04-23T07:35:58.067Z,20.16
2018-04-23T07:36:58.038Z,20.15
2018-04-23T07:37:58.013Z,20.17
2018-04-23T07:38:58.123Z,20.17
2018-04-23T07:39:58.113Z,20.15
2018-04-23T07:40:58.013Z,20.18
2018-04-23T07:41:58.176Z,20.2
2018-04-23T07:42:57.933Z,20.18
2018-04-23T07:43:58.123Z,20.21
2018-04-23T07:44:58.182Z,20.21
2018-04-23T07:45:57.972Z,20.2
2018-04-23T07:46:58.047Z,20.21
2018-04-23T07:47:57.970Z,20.21
2018-04-23T07:49:00.238Z,20.21
2018-04-23T07:49:58.056Z,20.22
2018-04-23T07:50:58.228Z,20.22
2018-04-23T07:51:57.937Z,20.22
2018-04-23T07:52:58.123Z,20.23
2018-04-23T07:53:58.091Z,20.24
2018-04-23T07:54:57.776Z,20.23
2018-04-23T07:55:58.202Z,20.25
2018-04-23T07:56:58.099Z,20.25
2018-04-23T07:57:57.978Z,20.25
2018-04-23T07:58:57.915Z,20.27
2018-04-23T07:59:57.965Z,20.27
2018-04-23T08:00:58.020Z,20.26
2018-04-23T08:01:58.241Z,20.27
2018-04-23T08:02:58.141Z,20.28
2018-04-23T08:03:58.033Z,20.26
2018-04-23T08:04:57.950Z,20.27
2018-04-23T08:05:57.984Z,20.28
2018-04-23T08:06:58.194Z,20.27
2018-04-23T08:07:57.980Z,20.29
2018-04-23T08:08:58.124Z,20.29
2018-04-23T08:09:58.024Z,20.29
2018-04-23T08:10:57.900Z,20.3
2018-04-23T08:11:57.975Z,20.29
2018-04-23T08:12:58.044Z,20.27
2018-04-23T08:13:57.908Z,20.3
2018-04-23T08:14:58.141Z,20.3
2018-04-23T08:15:57.886Z,20.29
2018-04-23T08:16:58.017Z,20.3
2018-04-23T08:17:58.137Z,20.29
2018-04-23T08:18:57.882Z,20.29
2018-04-23T08:19:57.886Z,20.3
2018-04-23T08:20:58.022Z,20.29
2018-04-23T08:21:58.088Z,20.26
2018-04-23T08:22:58.012Z,20.27
2018-04-23T08:23:58.039Z,20.26
2018-04-23T08:24:58.071Z,20.25
2018-04-23T08:25:58.126Z,20.26
2018-04-23T08:26:57.963Z,20.25
2018-04-23T08:27:58.031Z,20.22
2018-04-23T08:28:58.277Z,20.23
2018-04-23T08:29:58.221Z,20.22
2018-04-23T08:30:58.083Z,20.22
2018-04-23T08:31:58.249Z,20.23
2018-04-23T08:32:58.088Z,20.18
2018-04-23T08:33:58.178Z,20.18
2018-04-23T08:34:58.076Z,20.23
2018-04-23T08:35:57.879Z,20.24
2018-04-23T08:36:58.042Z,20.23
2018-04-23T08:37:58.036Z,20.26
2018-04-23T08:38:58.290Z,20.25
2018-04-23T08:39:58.211Z,20.21
2018-04-23T08:40:57.909Z,20.25
2018-04-23T08:41:58.146Z,20.25
2018-04-23T08:42:57.984Z,20.22
2018-04-23T08:43:58.450Z,20.23
2018-04-23T08:44:57.930Z,20.23
2018-04-23T08:45:58.225Z,20.22
2018-04-23T08:46:57.968Z,20.24
2018-04-23T08:47:58.011Z,20.25
2018-04-23T08:48:58.174Z,20.24
2018-04-23T08:49:57.948Z,20.26
2018-04-23T08:50:57.903Z,20.25
2018-04-23T08:51:58.106Z,20.25
2018-04-23T08:52:57.931Z,20.27
2018-04-23T08:53:58.032Z,20.26
2018-04-23T08:54:58.048Z,20.26
2018-04-23T08:55:58.079Z,20.28
2018-04-23T08:56:57.983Z,20.28
2018-04-23T08:57:58.110Z,20.27
2018-04-23T08:58:57.968Z,20.29
2018-04-23T08:59:57.901Z,20.21
2018-04-23T09:00:57.987Z,20.24
2018-04-23T09:01:57.969Z,20.28
2018-04-23T09:02:58.070Z,20.28
2018-04-23T09:03:58.149Z,20.27
2018-04-23T09:04:58.014Z,20.29
2018-04-23T09:05:58.114Z,20.29
2018-04-23T09:06:58.068Z,20.28
2018-04-23T09:07:58.019Z,20.31
2018-04-23T09:08:58.206Z,20.3
2018-04-23T09:09:57.928Z,20.29
2018-04-23T09:10:58.041Z,20.3
2018-04-23T09:11:57.887Z,20.29
2018-04-23T09:12:57.874Z,20.29
2018-04-23T09:13:57.977Z,20.29
2018-04-23T09:14:58.121Z,20.29
2018-04-23T09:15:57.901Z,20.27
2018-04-23T09:16:58.079Z,20.3
2018-04-23T09:17:58.142Z,20.29
2018-04-23T09:18:57.905Z,20.27
2018-04-23T09:19:57.991Z,20.28
2018-04-23T09:20:58.006Z,20.29
2018-04-23T09:21:58.054Z,20.28
2018-04-23T09:22:57.996Z,20.29
2018-04-23T09:23:58.002Z,20.29
2018-04-23T09:24:58.017Z,20.28
2018-04-23T09:25:58.099Z,20.3
2018-04-23T09:26:58.147Z,20.29
2018-04-23T09:27:57.981Z,20.29
2018-04-23T09:28:58.048Z,20.3
2018-04-23T09:29:57.938Z,20.31
2018-04-23T09:30:58.006Z,20.28
2018-04-23T09:31:58.042Z,20.31
2018-04-23T09:32:58.136Z,20.31
2018-04-23T09:33:58.103Z,20.29
2018-04-23T09:34:57.731Z,20.32
2018-04-23T09:36:00.400Z,20.31
2018-04-23T09:36:58.038Z,20.3
2018-04-23T09:37:58.146Z,20.32
2018-04-23T09:38:58.092Z,20.32
2018-04-23T09:39:57.900Z,20.31
2018-04-23T09:40:58.007Z,20.33
2018-04-23T09:41:57.932Z,20.33
2018-04-23T09:42:58.207Z,20.3
2018-04-23T09:43:57.960Z,20.33
2018-04-23T09:44:58.083Z,20.33
2018-04-23T09:45:57.869Z,20.33
2018-04-23T09:46:57.976Z,20.35
2018-04-23T09:47:58.161Z,20.34
2018-04-23T09:48:57.885Z,20.32
2018-04-23T09:49:58.047Z,20.35
2018-04-23T09:50:58.107Z,20.35
2018-04-23T09:51:58.073Z,20.34
2018-04-23T09:52:58.318Z,20.35
2018-04-23T09:53:58.114Z,20.36
2018-04-23T09:54:58.034Z,20.34
2018-04-23T09:55:58.132Z,20.36
2018-04-23T09:56:57.903Z,20.36
2018-04-23T09:57:58.122Z,20.34
2018-04-23T09:58:58.026Z,20.36
2018-04-23T09:59:58.110Z,20.34
2018-04-23T10:00:57.994Z,20.34
2018-04-23T10:01:58.130Z,20.34
2018-04-23T10:03:00.682Z,20.26
2018-04-23T10:03:58.065Z,20.27
2018-04-23T10:04:58.044Z,20.32
2018-04-23T10:05:58.158Z,20.33
2018-04-23T10:06:58.140Z,20.34
2018-04-23T10:07:58.163Z,20.35
2018-04-23T10:08:58.050Z,20.35
2018-04-23T10:09:57.944Z,20.34
2018-04-23T10:10:58.123Z,20.36
2018-04-23T10:11:58.082Z,20.36
2018-04-23T10:12:58.371Z,20.36
2018-04-23T10:13:58.142Z,20.38
2018-04-23T10:14:58.053Z,20.37
2018-04-23T10:15:57.861Z,20.37
2018-04-23T10:16:58.124Z,20.39
2018-04-23T10:17:58.028Z,20.39
2018-04-23T10:18:58.064Z,20.38
2018-04-23T10:19:57.933Z,20.39
2018-04-23T10:20:58.114Z,20.39
2018-04-23T10:21:57.958Z,20.37
2018-04-23T10:22:58.022Z,20.39
2018-04-23T10:23:58.062Z,20.38
2018-04-23T10:24:58.042Z,20.36
2018-04-23T10:25:57.974Z,20.38
2018-04-23T10:26:58.058Z,20.36
2018-04-23T10:27:58.105Z,20.36
2018-04-23T10:28:57.907Z,20.37
2018-04-23T10:29:57.938Z,20.32
2018-04-23T10:30:58.071Z,20.34
2018-04-23T10:31:58.139Z,20.36
2018-04-23T10:32:58.101Z,20.36
2018-04-23T10:33:58.025Z,20.35
2018-04-23T10:34:57.909Z,20.37
2018-04-23T10:35:57.911Z,20.36
2018-04-23T10:36:58.035Z,20.35
2018-04-23T10:37:57.925Z,20.38
2018-04-23T10:38:58.105Z,20.37
2018-04-23T10:39:57.871Z,20.35
2018-04-23T10:40:58.097Z,20.38
2018-04-23T10:41:58.325Z,20.38
2018-04-23T10:42:58.072Z,20.36
2018-04-23T10:43:58.025Z,20.39
2018-04-23T10:44:57.836Z,20.35
2018-04-23T10:45:57.971Z,20.35
2018-04-23T10:46:57.974Z,20.37
2018-04-23T10:47:58.044Z,20.32
2018-04-23T10:48:58.059Z,20.35
2018-04-23T10:49:58.106Z,20.37
2018-04-23T10:50:58.126Z,20.36
2018-04-23T10:51:58.021Z,20.35
2018-04-23T10:52:58.091Z,20.36
2018-04-23T10:53:58.238Z,20.35
2018-04-23T10:54:58.240Z,20.35
2018-04-23T10:55:58.011Z,20.37
2018-04-23T10:56:57.892Z,20.35
2018-04-23T10:57:58.094Z,20.35
2018-04-23T10:58:57.893Z,20.35
2018-04-23T10:59:58.114Z,20.34
2018-04-23T11:00:58.072Z,20.33
2018-04-23T11:01:57.893Z,20.35
2018-04-23T11:02:58.135Z,20.33
2018-04-23T11:03:57.868Z,20.32
2018-04-23T11:04:58.310Z,20.34
2018-04-23T11:05:58.102Z,20.32
2018-04-23T11:06:57.917Z,20.31
2018-04-23T11:07:58.147Z,20.32
2018-04-23T11:08:57.859Z,20.31
2018-04-23T11:09:58.131Z,20.3
2018-04-23T11:10:57.998Z,20.33
2018-04-23T11:11:58.031Z,20.37
2018-04-23T11:12:58.016Z,20.46
2018-04-23T11:13:57.886Z,20.49
2018-04-23T11:14:58.227Z,20.53
2018-04-23T11:15:57.983Z,20.57
2018-04-23T11:16:58.042Z,20.53
2018-04-23T11:17:58.032Z,20.47
2018-04-23T11:18:58.158Z,20.45
2018-04-23T11:19:57.884Z,20.41
2018-04-23T11:20:58.014Z,20.45
2018-04-23T11:21:57.942Z,20.48
2018-04-23T11:22:58.010Z,20.43
2018-04-23T11:23:58.025Z,20.41
2018-04-23T11:24:57.828Z,20.39
2018-04-23T11:25:57.861Z,20.38
2018-04-23T11:26:57.982Z,20.36
2018-04-23T11:27:58.051Z,20.36
2018-04-23T11:28:57.891Z,20.35
2018-04-23T11:29:57.948Z,20.4
2018-04-23T11:30:58.031Z,20.43
2018-04-23T11:31:57.839Z,20.51
2018-04-23T11:32:57.972Z,20.54
2018-04-23T11:33:58.030Z,20.5
2018-04-23T11:34:57.991Z,20.5
2018-04-23T11:35:57.911Z,20.49
2018-04-23T11:36:58.092Z,20.46
2018-04-23T11:37:57.924Z,20.44
2018-04-23T11:38:57.940Z,20.45
2018-04-23T11:39:58.028Z,20.43
2018-04-23T11:40:57.968Z,20.43
2018-04-23T11:41:58.055Z,20.43
2018-04-23T11:42:58.360Z,20.42
2018-04-23T11:43:57.999Z,20.42
2018-04-23T11:44:58.044Z,20.44
2018-04-23T11:45:57.736Z,20.44
2018-04-23T11:46:57.970Z,20.46
2018-04-23T11:47:58.097Z,20.45
2018-04-23T11:48:58.023Z,20.51
2018-04-23T11:49:57.825Z,20.53
2018-04-23T11:50:58.077Z,20.53
2018-04-23T11:51:57.899Z,20.52
2018-04-23T11:52:58.035Z,20.53
2018-04-23T11:53:58.064Z,20.54
2018-04-23T11:54:58.023Z,20.55
2018-04-23T11:55:58.236Z,20.6
2018-04-23T11:56:58.044Z,20.58
2018-04-23T11:57:57.975Z,20.6
2018-04-23T11:58:58.067Z,20.61
2018-04-23T11:59:57.947Z,20.59
2018-04-23T12:00:58.089Z,20.58
2018-04-23T12:01:57.829Z,20.57
2018-04-23T12:02:58.016Z,20.57
2018-04-23T12:03:57.917Z,20.57
2018-04-23T12:04:58.107Z,20.54
2018-04-23T12:33:56.572Z,20.35
2018-04-23T12:34:56.382Z,20.25
2018-04-23T12:35:58.093Z,20.27
2018-04-23T12:36:57.924Z,20.27
2018-04-23T12:40:31.004Z,20.21
2018-04-23T12:41:31.010Z,20.21
2018-04-23T12:42:31.004Z,20.22
2018-04-23T12:43:30.893Z,20.25
2018-04-23T12:44:31.179Z,20.3
2018-04-23T12:45:31.013Z,20.3
2018-04-23T12:46:31.150Z,20.31
2018-04-23T12:47:31.098Z,20.34
2018-04-23T12:48:30.983Z,20.34
2018-04-23T12:49:05.584Z,20.37
2018-04-23T12:50:05.630Z,20.37
2018-04-23T12:51:05.595Z,20.43
2018-04-23T12:52:05.791Z,20.39
2018-04-23T12:53:05.871Z,20.38
2018-04-23T12:54:06.028Z,20.39
2018-04-23T12:55:05.916Z,20.4
2018-04-23T12:56:05.713Z,20.4
2018-04-23T12:57:05.828Z,20.41
2018-04-23T12:58:05.549Z,20.43
2018-04-23T12:59:05.932Z,20.4
2018-04-23T13:00:05.730Z,20.41
2018-04-23T13:01:05.783Z,20.41
2018-04-23T13:02:05.593Z,20.4
2018-04-23T13:03:05.594Z,20.42
2018-04-23T13:04:05.800Z,20.44
2018-04-23T13:05:05.644Z,20.4
2018-04-23T13:06:05.970Z,20.42
2018-04-23T13:07:05.849Z,20.43
2018-04-23T13:08:05.819Z,20.41
2018-04-23T13:09:05.942Z,20.43
2018-04-23T13:10:05.921Z,20.43
2018-04-23T13:11:05.551Z,20.4
2018-04-23T13:12:05.602Z,20.42
2018-04-23T13:13:05.742Z,20.43
2018-04-23T13:14:05.929Z,20.4
2018-04-23T13:15:05.653Z,20.4
2018-04-23T13:16:05.792Z,20.41
2018-04-23T13:17:05.803Z,20.4
2018-04-23T13:18:05.582Z,20.41
2018-04-23T13:19:05.873Z,20.43
2018-04-23T13:20:05.836Z,20.41
2018-04-23T13:21:05.563Z,20.44
2018-04-23T13:22:05.788Z,20.44
2018-04-23T13:23:05.898Z,20.37
2018-04-23T13:24:05.803Z,20.41
2018-04-23T13:25:05.904Z,20.42